sensor_id;sensor_type;location;lat;lon;timestamp;pressure;altitude;pressure_sealevel;temperature;humidity
50652;BME280;66928;52.086;5.240;2023-04-07T05:42:53;101432.0;;;9.41;89.72
50652;BME280;66928;52.086;5.240;2023-04-07T05:46:06;101428.0;;;9.33;89.93
50652;BME280;66928;52.086;5.240;2023-04-07T05:47:41;101428.0;;;9.5;89.4
50652;BME280;66928;52.086;5.240;2023-04-07T05:49:18;101434.0;;;9.68;88.1
50652;BME280;66928;52.086;5.240;2023-04-07T05:50:55;101435.0;;;9.69;88.07
50652;BME280;66928;52.086;5.240;2023-04-07T05:54:09;101434.0;;;9.56;87.87
50652;BME280;66928;52.086;5.240;2023-04-07T05:55:45;101432.0;;;9.71;87.64
50652;BME280;66928;52.086;5.240;2023-04-07T05:57:22;101436.0;;;9.48;88.59
50652;BME280;66928;52.086;5.240;2023-04-07T06:00:35;101438.0;;;9.72;87.74
50652;BME280;66928;52.086;5.240;2023-04-07T06:02:12;101443.0;;;9.67;87.65
50652;BME280;66928;52.086;5.240;2023-04-07T06:03:48;101441.0;;;9.74;87.71
50652;BME280;66928;52.086;5.240;2023-04-07T06:07:01;101442.0;;;9.55;88.27
50652;BME280;66928;52.086;5.240;2023-04-07T06:08:38;101444.0;;;9.56;88.41
50652;BME280;66928;52.086;5.240;2023-04-07T06:10:14;101445.0;;;9.63;88.37
50652;BME280;66928;52.086;5.240;2023-04-07T06:11:50;101456.0;;;9.69;87.44
50652;BME280;66928;52.086;5.240;2023-04-07T06:15:03;101453.0;;;9.81;87.3
50652;BME280;66928;52.086;5.240;2023-04-07T06:16:40;101451.0;;;9.56;87.72
50652;BME280;66928;52.086;5.240;2023-04-07T06:18:16;101453.0;;;9.44;88.9
50652;BME280;66928;52.086;5.240;2023-04-07T06:21:27;101453.0;;;9.67;88.42
50652;BME280;66928;52.086;5.240;2023-04-07T06:23:03;101453.0;;;9.9;86.96
50652;BME280;66928;52.086;5.240;2023-04-07T06:24:40;101450.0;;;10.07;86.31
50652;BME280;66928;52.086;5.240;2023-04-07T06:27:52;101456.0;;;9.92;87.0
50652;BME280;66928;52.086;5.240;2023-04-07T06:29:29;101459.0;;;9.64;87.42
50652;BME280;66928;52.086;5.240;2023-04-07T06:31:07;101462.0;;;9.82;86.9
50652;BME280;66928;52.086;5.240;2023-04-07T06:32:43;101462.0;;;9.83;86.91
50652;BME280;66928;52.086;5.240;2023-04-07T06:35:55;101465.0;;;9.52;87.87
50652;BME280;66928;52.086;5.240;2023-04-07T06:37:32;101465.0;;;9.76;87.92
50652;BME280;66928;52.086;5.240;2023-04-07T06:39:08;101466.0;;;9.4;89.94
50652;BME280;66928;52.086;5.240;2023-04-07T06:42:20;101467.0;;;9.52;89.53
50652;BME280;66928;52.086;5.240;2023-04-07T06:43:56;101467.0;;;9.77;88.66
50652;BME280;66928;52.086;5.240;2023-04-07T06:45:33;101476.0;;;9.41;89.64
50652;BME280;66928;52.086;5.240;2023-04-07T06:48:45;101475.0;;;9.65;88.82
50652;BME280;66928;52.086;5.240;2023-04-07T06:50:21;101474.0;;;9.89;87.68
50652;BME280;66928;52.086;5.240;2023-04-07T06:51:57;101471.0;;;9.81;87.17
50652;BME280;66928;52.086;5.240;2023-04-07T06:55:09;101477.0;;;9.93;86.75
50652;BME280;66928;52.086;5.240;2023-04-07T06:56:45;101478.0;;;10.11;88.18
50652;BME280;66928;52.086;5.240;2023-04-07T06:58:22;101481.0;;;9.89;88.05
50652;BME280;66928;52.086;5.240;2023-04-07T06:59:57;101487.0;;;10.05;86.75
50652;BME280;66928;52.086;5.240;2023-04-07T07:03:09;101489.0;;;10.01;86.76
50652;BME280;66928;52.086;5.240;2023-04-07T07:04:45;101487.0;;;9.76;87.5
50652;BME280;66928;52.086;5.240;2023-04-07T07:06:22;101492.0;;;9.88;86.7
50652;BME280;66928;52.086;5.240;2023-04-07T07:09:34;101491.0;;;9.77;87.71
50652;BME280;66928;52.086;5.240;2023-04-07T07:11:10;101498.0;;;9.81;87.31
50652;BME280;66928;52.086;5.240;2023-04-07T07:12:46;101501.0;;;9.61;87.75
50652;BME280;66928;52.086;5.240;2023-04-07T07:15:59;101499.0;;;9.63;87.74
50652;BME280;66928;52.086;5.240;2023-04-07T07:17:35;101497.0;;;9.77;88.2
50652;BME280;66928;52.086;5.240;2023-04-07T07:19:11;101499.0;;;9.82;87.76
50652;BME280;66928;52.086;5.240;2023-04-07T07:20:47;101503.0;;;9.64;88.04
50652;BME280;66928;52.086;5.240;2023-04-07T07:23:59;101505.0;;;9.75;87.49
50652;BME280;66928;52.086;5.240;2023-04-07T07:25:36;101507.0;;;9.66;88.38
50652;BME280;66928;52.086;5.240;2023-04-07T07:27:12;101507.0;;;9.96;87.54
50652;BME280;66928;52.086;5.240;2023-04-07T07:30:24;101512.0;;;9.76;87.97
50652;BME280;66928;52.086;5.240;2023-04-07T07:32:00;101515.0;;;9.97;87.3
50652;BME280;66928;52.086;5.240;2023-04-07T07:33:36;101515.0;;;9.74;88.14
50652;BME280;66928;52.086;5.240;2023-04-07T07:36:49;101518.0;;;9.93;87.27
50652;BME280;66928;52.086;5.240;2023-04-07T07:38:25;101528.0;;;9.82;87.78
50652;BME280;66928;52.086;5.240;2023-04-07T07:40:02;101525.0;;;10.1;86.52
50652;BME280;66928;52.086;5.240;2023-04-07T07:43:14;101525.0;;;10.13;86.06
50652;BME280;66928;52.086;5.240;2023-04-07T07:44:50;101524.0;;;10.07;87.02
50652;BME280;66928;52.086;5.240;2023-04-07T07:46:26;101527.0;;;10.02;86.37
50652;BME280;66928;52.086;5.240;2023-04-07T07:48:02;101528.0;;;10.11;85.64
50652;BME280;66928;52.086;5.240;2023-04-07T07:51:15;101530.0;;;10.17;84.91
50652;BME280;66928;52.086;5.240;2023-04-07T07:52:51;101530.0;;;10.01;85.51
50652;BME280;66928;52.086;5.240;2023-04-07T07:54:27;101534.0;;;10.31;84.97
50652;BME280;66928;52.086;5.240;2023-04-07T07:57:39;101535.0;;;10.46;84.71
50652;BME280;66928;52.086;5.240;2023-04-07T07:59:15;101535.0;;;10.51;84.29
50652;BME280;66928;52.086;5.240;2023-04-07T08:00:52;101542.0;;;10.55;84.28
50652;BME280;66928;52.086;5.240;2023-04-07T08:04:04;101537.0;;;10.53;84.23
50652;BME280;66928;52.086;5.240;2023-04-07T08:05:41;101546.0;;;9.93;87.22
50652;BME280;66928;52.086;5.240;2023-04-07T08:07:17;101546.0;;;10.43;85.27
50652;BME280;66928;52.086;5.240;2023-04-07T08:08:53;101543.0;;;10.29;85.29
50652;BME280;66928;52.086;5.240;2023-04-07T08:12:06;101547.0;;;10.45;84.86
50652;BME280;66928;52.086;5.240;2023-04-07T08:13:42;101550.0;;;9.97;86.31
50652;BME280;66928;52.086;5.240;2023-04-07T08:15:18;101555.0;;;9.97;86.1
50652;BME280;66928;52.086;5.240;2023-04-07T08:18:30;101557.0;;;9.93;86.77
50652;BME280;66928;52.086;5.240;2023-04-07T08:20:08;101558.0;;;9.83;87.46
50652;BME280;66928;52.086;5.240;2023-04-07T08:21:44;101569.0;;;9.73;87.34
50652;BME280;66928;52.086;5.240;2023-04-07T08:24:57;101564.0;;;9.66;87.31
50652;BME280;66928;52.086;5.240;2023-04-07T08:26:33;101569.0;;;9.74;87.34
50652;BME280;66928;52.086;5.240;2023-04-07T08:28:09;101564.0;;;9.89;86.69
50652;BME280;66928;52.086;5.240;2023-04-07T08:31:32;101561.0;;;10.27;85.56
50652;BME280;66928;52.086;5.240;2023-04-07T08:33:09;101563.0;;;10.11;85.93
50652;BME280;66928;52.086;5.240;2023-04-07T08:34:45;101566.0;;;10.28;84.49
50652;BME280;66928;52.086;5.240;2023-04-07T08:36:21;101570.0;;;9.98;83.72
50652;BME280;66928;52.086;5.240;2023-04-07T08:39:33;101574.0;;;9.72;84.9
50652;BME280;66928;52.086;5.240;2023-04-07T08:41:11;101575.0;;;9.73;83.69
50652;BME280;66928;52.086;5.240;2023-04-07T08:42:48;101576.0;;;9.56;84.09
50652;BME280;66928;52.086;5.240;2023-04-07T08:47:41;101580.0;;;9.8;83.47
50652;BME280;66928;52.086;5.240;2023-04-07T08:49:18;101580.0;;;9.48;83.65
50652;BME280;66928;52.086;5.240;2023-04-07T08:50:57;101585.0;;;9.42;84.71
50652;BME280;66928;52.086;5.240;2023-04-07T08:54:18;101583.0;;;9.73;83.63
50652;BME280;66928;52.086;5.240;2023-04-07T08:55:55;101585.0;;;10.0;82.43
50652;BME280;66928;52.086;5.240;2023-04-07T08:57:33;101585.0;;;9.58;82.7
50652;BME280;66928;52.086;5.240;2023-04-07T08:59:11;101587.0;;;9.46;83.02
50652;BME280;66928;52.086;5.240;2023-04-07T09:02:26;101585.0;;;9.72;82.7
50652;BME280;66928;52.086;5.240;2023-04-07T09:04:04;101588.0;;;9.76;82.7
50652;BME280;66928;52.086;5.240;2023-04-07T09:05:40;101588.0;;;9.76;81.95
50652;BME280;66928;52.086;5.240;2023-04-07T09:08:55;101588.0;;;10.01;81.2
50652;BME280;66928;52.086;5.240;2023-04-07T09:10:31;101597.0;;;9.78;82.12
50652;BME280;66928;52.086;5.240;2023-04-07T09:12:07;101597.0;;;10.05;81.0
50652;BME280;66928;52.086;5.240;2023-04-07T09:13:44;101605.0;;;9.94;81.44
50652;BME280;66928;52.086;5.240;2023-04-07T09:16:57;101600.0;;;10.02;80.86
50652;BME280;66928;52.086;5.240;2023-04-07T09:18:33;101608.0;;;9.77;81.03
50652;BME280;66928;52.086;5.240;2023-04-07T09:20:10;101602.0;;;9.9;81.41
50652;BME280;66928;52.086;5.240;2023-04-07T09:23:27;101599.0;;;10.08;80.77
50652;BME280;66928;52.086;5.240;2023-04-07T09:25:13;101605.0;;;9.83;81.14
50652;BME280;66928;52.086;5.240;2023-04-07T09:27:07;101605.0;;;10.01;81.14
50652;BME280;66928;52.086;5.240;2023-04-07T09:28:46;101602.0;;;10.08;80.19
50652;BME280;66928;52.086;5.240;2023-04-07T09:31:59;101607.0;;;10.23;80.31
50652;BME280;66928;52.086;5.240;2023-04-07T09:33:36;101601.0;;;10.47;79.02
50652;BME280;66928;52.086;5.240;2023-04-07T09:35:12;101607.0;;;10.23;78.47
50652;BME280;66928;52.086;5.240;2023-04-07T09:36:48;101607.0;;;10.34;78.84
50652;BME280;66928;52.086;5.240;2023-04-07T09:40:08;101606.0;;;10.21;78.47
50652;BME280;66928;52.086;5.240;2023-04-07T09:41:45;101617.0;;;10.17;79.05
50652;BME280;66928;52.086;5.240;2023-04-07T09:43:21;101616.0;;;9.97;79.67
50652;BME280;66928;52.086;5.240;2023-04-07T09:46:34;101624.0;;;10.03;79.56
50652;BME280;66928;52.086;5.240;2023-04-07T09:48:18;101615.0;;;10.1;79.77
50652;BME280;66928;52.086;5.240;2023-04-07T09:49:56;101622.0;;;9.94;79.41
50652;BME280;66928;52.086;5.240;2023-04-07T09:51:32;101621.0;;;10.21;79.2
50652;BME280;66928;52.086;5.240;2023-04-07T09:54:45;101614.0;;;10.41;79.03
50652;BME280;66928;52.086;5.240;2023-04-07T09:56:23;101615.0;;;10.18;78.87
50652;BME280;66928;52.086;5.240;2023-04-07T09:58:00;101618.0;;;10.28;79.38
50652;BME280;66928;52.086;5.240;2023-04-07T10:01:17;101616.0;;;10.49;78.61
50652;BME280;66928;52.086;5.240;2023-04-07T10:02:53;101618.0;;;10.47;78.95
50652;BME280;66928;52.086;5.240;2023-04-07T10:04:30;101616.0;;;10.25;79.08
50652;BME280;66928;52.086;5.240;2023-04-07T10:06:06;101623.0;;;10.22;79.52
50652;BME280;66928;52.086;5.240;2023-04-07T10:09:19;101627.0;;;10.4;79.8
50652;BME280;66928;52.086;5.240;2023-04-07T10:10:55;101625.0;;;10.35;79.72
50652;BME280;66928;52.086;5.240;2023-04-07T10:12:33;101631.0;;;10.37;79.27
50652;BME280;66928;52.086;5.240;2023-04-07T10:15:47;101627.0;;;10.42;78.53
50652;BME280;66928;52.086;5.240;2023-04-07T10:17:24;101623.0;;;10.68;77.97
50652;BME280;66928;52.086;5.240;2023-04-07T10:19:01;101626.0;;;10.76;77.16
50652;BME280;66928;52.086;5.240;2023-04-07T10:22:16;101630.0;;;10.54;78.2
50652;BME280;66928;52.086;5.240;2023-04-07T10:23:58;101630.0;;;10.64;77.39
50652;BME280;66928;52.086;5.240;2023-04-07T10:25:41;101627.0;;;10.82;77.08
50652;BME280;66928;52.086;5.240;2023-04-07T10:27:21;101627.0;;;10.8;77.14
50652;BME280;66928;52.086;5.240;2023-04-07T10:29:05;101632.0;;;10.63;77.97
50652;BME280;66928;52.086;5.240;2023-04-07T10:32:23;101639.0;;;10.77;77.39
50652;BME280;66928;52.086;5.240;2023-04-07T10:33:59;101635.0;;;10.59;78.02
50652;BME280;66928;52.086;5.240;2023-04-07T10:36:02;101643.0;;;10.41;78.36
50652;BME280;66928;52.086;5.240;2023-04-07T10:38:09;101644.0;;;10.38;78.61
50652;BME280;66928;52.086;5.240;2023-04-07T10:39:46;101659.0;;;10.29;78.53
50652;BME280;66928;52.086;5.240;2023-04-07T10:43:08;101648.0;;;10.57;78.52
50652;BME280;66928;52.086;5.240;2023-04-07T10:44:46;101651.0;;;10.29;79.14
50652;BME280;66928;52.086;5.240;2023-04-07T10:46:22;101652.0;;;10.27;79.37
50652;BME280;66928;52.086;5.240;2023-04-07T10:48:08;101655.0;;;10.34;79.36
50652;BME280;66928;52.086;5.240;2023-04-07T10:52:31;101655.0;;;10.33;79.52
50652;BME280;66928;52.086;5.240;2023-04-07T10:54:15;101665.0;;;10.15;79.09
50652;BME280;66928;52.086;5.240;2023-04-07T10:57:30;101663.0;;;10.35;78.14
50652;BME280;66928;52.086;5.240;2023-04-07T10:59:13;101664.0;;;10.72;77.27
50652;BME280;66928;52.086;5.240;2023-04-07T11:01:21;101663.0;;;10.28;78.5
50652;BME280;66928;52.086;5.240;2023-04-07T11:03:09;101668.0;;;10.31;78.66
50652;BME280;66928;52.086;5.240;2023-04-07T11:04:46;101661.0;;;10.43;78.48
50652;BME280;66928;52.086;5.240;2023-04-07T11:07:59;101661.0;;;10.69;77.48
50652;BME280;66928;52.086;5.240;2023-04-07T11:09:35;101667.0;;;10.6;77.86
50652;BME280;66928;52.086;5.240;2023-04-07T11:11:12;101663.0;;;10.49;78.58
50652;BME280;66928;52.086;5.240;2023-04-07T11:14:42;101668.0;;;10.71;77.91
50652;BME280;66928;52.086;5.240;2023-04-07T11:16:19;101675.0;;;10.82;77.63
50652;BME280;66928;52.086;5.240;2023-04-07T11:18:14;101673.0;;;10.64;77.55
50652;BME280;66928;52.086;5.240;2023-04-07T11:19:50;101680.0;;;10.53;77.58
50652;BME280;66928;52.086;5.240;2023-04-07T11:21:27;101683.0;;;10.45;77.05
50652;BME280;66928;52.086;5.240;2023-04-07T11:24:39;101673.0;;;10.76;75.41
50652;BME280;66928;52.086;5.240;2023-04-07T11:26:16;101676.0;;;10.61;75.55
50652;BME280;66928;52.086;5.240;2023-04-07T11:27:52;101680.0;;;10.65;75.25
50652;BME280;66928;52.086;5.240;2023-04-07T11:31:05;101674.0;;;10.65;75.55
50652;BME280;66928;52.086;5.240;2023-04-07T11:32:41;101673.0;;;10.69;75.22
50652;BME280;66928;52.086;5.240;2023-04-07T11:34:17;101671.0;;;10.97;74.86
50652;BME280;66928;52.086;5.240;2023-04-07T11:37:33;101675.0;;;11.19;74.25
50652;BME280;66928;52.086;5.240;2023-04-07T11:39:25;101671.0;;;11.59;72.91
50652;BME280;66928;52.086;5.240;2023-04-07T11:41:09;101669.0;;;11.79;72.16
50652;BME280;66928;52.086;5.240;2023-04-07T11:42:45;101677.0;;;11.13;72.95
50652;BME280;66928;52.086;5.240;2023-04-07T11:44:22;101678.0;;;11.38;72.25
50652;BME280;66928;52.086;5.240;2023-04-07T11:47:44;101674.0;;;11.27;71.33
50652;BME280;66928;52.086;5.240;2023-04-07T11:49:20;101680.0;;;11.43;71.48
50652;BME280;66928;52.086;5.240;2023-04-07T11:50:57;101680.0;;;11.7;70.58
50652;BME280;66928;52.086;5.240;2023-04-07T11:54:17;101678.0;;;11.64;70.55
50652;BME280;66928;52.086;5.240;2023-04-07T11:55:59;101683.0;;;11.62;71.41
50652;BME280;66928;52.086;5.240;2023-04-07T11:57:45;101683.0;;;11.39;71.92
50652;BME280;66928;52.086;5.240;2023-04-07T11:59:22;101682.0;;;11.33;72.83
50652;BME280;66928;52.086;5.240;2023-04-07T12:02:38;101683.0;;;11.68;71.45
50652;BME280;66928;52.086;5.240;2023-04-07T12:04:14;101684.0;;;11.75;70.34
50652;BME280;66928;52.086;5.240;2023-04-07T12:05:51;101689.0;;;11.68;70.45
50652;BME280;66928;52.086;5.240;2023-04-07T12:07:27;101687.0;;;11.52;71.16
50652;BME280;66928;52.086;5.240;2023-04-07T12:10:40;101695.0;;;11.86;70.11
50652;BME280;66928;52.086;5.240;2023-04-07T12:12:24;101692.0;;;11.78;69.5
50652;BME280;66928;52.086;5.240;2023-04-07T12:14:02;101693.0;;;11.64;70.05
50652;BME280;66928;52.086;5.240;2023-04-07T12:17:19;101692.0;;;11.5;71.3
50652;BME280;66928;52.086;5.240;2023-04-07T12:18:56;101697.0;;;11.13;71.63
50652;BME280;66928;52.086;5.240;2023-04-07T12:20:32;101700.0;;;11.25;72.39
50652;BME280;66928;52.086;5.240;2023-04-07T12:22:08;101699.0;;;11.11;72.61
50652;BME280;66928;52.086;5.240;2023-04-07T12:25:21;101701.0;;;11.08;72.72
50652;BME280;66928;52.086;5.240;2023-04-07T12:26:58;101705.0;;;11.17;72.94
50652;BME280;66928;52.086;5.240;2023-04-07T12:28:34;101706.0;;;11.53;71.44
50652;BME280;66928;52.086;5.240;2023-04-07T12:31:47;101710.0;;;11.18;71.88
50652;BME280;66928;52.086;5.240;2023-04-07T12:33:23;101714.0;;;11.38;71.59
50652;BME280;66928;52.086;5.240;2023-04-07T12:34:59;101718.0;;;11.36;70.88
50652;BME280;66928;52.086;5.240;2023-04-07T12:38:12;101715.0;;;11.17;71.89
50652;BME280;66928;52.086;5.240;2023-04-07T12:39:48;101727.0;;;11.15;72.55
50652;BME280;66928;52.086;5.240;2023-04-07T12:41:24;101713.0;;;11.18;72.77
50652;BME280;66928;52.086;5.240;2023-04-07T12:43:00;101721.0;;;11.53;71.66
50652;BME280;66928;52.086;5.240;2023-04-07T12:46:12;101724.0;;;11.37;72.48
50652;BME280;66928;52.086;5.240;2023-04-07T12:47:49;101726.0;;;11.48;72.53
50652;BME280;66928;52.086;5.240;2023-04-07T12:49:25;101733.0;;;10.95;73.95
50652;BME280;66928;52.086;5.240;2023-04-07T12:52:37;101735.0;;;10.86;74.2
50652;BME280;66928;52.086;5.240;2023-04-07T12:54:13;101731.0;;;10.94;74.64
50652;BME280;66928;52.086;5.240;2023-04-07T12:55:49;101734.0;;;11.02;74.3
50652;BME280;66928;52.086;5.240;2023-04-07T12:59:02;101733.0;;;11.25;74.11
50652;BME280;66928;52.086;5.240;2023-04-07T13:00:38;101740.0;;;11.14;74.08
50652;BME280;66928;52.086;5.240;2023-04-07T13:02:14;101739.0;;;11.28;74.2
50652;BME280;66928;52.086;5.240;2023-04-07T13:03:50;101737.0;;;11.49;72.95
50652;BME280;66928;52.086;5.240;2023-04-07T13:07:04;101747.0;;;11.2;72.99
50652;BME280;66928;52.086;5.240;2023-04-07T13:08:40;101750.0;;;11.08;73.11
50652;BME280;66928;52.086;5.240;2023-04-07T13:10:17;101746.0;;;11.17;73.74
50652;BME280;66928;52.086;5.240;2023-04-07T13:13:29;101741.0;;;11.22;74.27
50652;BME280;66928;52.086;5.240;2023-04-07T13:15:06;101744.0;;;10.96;75.45
50652;BME280;66928;52.086;5.240;2023-04-07T13:16:42;101753.0;;;10.97;75.05
50652;BME280;66928;52.086;5.240;2023-04-07T13:19:55;101747.0;;;11.16;74.69
50652;BME280;66928;52.086;5.240;2023-04-07T13:21:31;101749.0;;;11.08;74.86
50652;BME280;66928;52.086;5.240;2023-04-07T13:23:07;101745.0;;;11.08;74.7
50652;BME280;66928;52.086;5.240;2023-04-07T13:26:19;101742.0;;;10.95;74.95
50652;BME280;66928;52.086;5.240;2023-04-07T13:27:55;101741.0;;;11.2;74.56
50652;BME280;66928;52.086;5.240;2023-04-07T13:29:31;101747.0;;;11.48;73.53
50652;BME280;66928;52.086;5.240;2023-04-07T13:31:08;101739.0;;;11.28;73.59
50652;BME280;66928;52.086;5.240;2023-04-07T13:34:20;101744.0;;;11.23;73.95
50652;BME280;66928;52.086;5.240;2023-04-07T13:35:56;101744.0;;;11.34;73.44
50652;BME280;66928;52.086;5.240;2023-04-07T13:37:32;101744.0;;;11.68;72.84
50652;BME280;66928;52.086;5.240;2023-04-07T13:40:44;101746.0;;;11.56;73.23
50652;BME280;66928;52.086;5.240;2023-04-07T13:42:21;101742.0;;;11.47;73.47
50652;BME280;66928;52.086;5.240;2023-04-07T13:43:57;101745.0;;;11.53;73.3
50652;BME280;66928;52.086;5.240;2023-04-07T13:47:10;101751.0;;;11.01;75.05
50652;BME280;66928;52.086;5.240;2023-04-07T13:48:46;101750.0;;;10.8;76.69
50652;BME280;66928;52.086;5.240;2023-04-07T13:50:22;101749.0;;;11.02;76.33
50652;BME280;66928;52.086;5.240;2023-04-07T13:51:58;101759.0;;;10.94;76.77
50652;BME280;66928;52.086;5.240;2023-04-07T13:55:10;101748.0;;;10.96;77.25
50652;BME280;66928;52.086;5.240;2023-04-07T13:56:46;101748.0;;;10.99;76.86
50652;BME280;66928;52.086;5.240;2023-04-07T13:58:22;101749.0;;;11.45;75.52
50652;BME280;66928;52.086;5.240;2023-04-07T14:01:35;101751.0;;;11.46;75.33
50652;BME280;66928;52.086;5.240;2023-04-07T14:03:13;101756.0;;;11.59;75.22
50652;BME280;66928;52.086;5.240;2023-04-07T14:04:50;101752.0;;;11.29;75.41
50652;BME280;66928;52.086;5.240;2023-04-07T14:08:02;101763.0;;;11.18;75.72
50652;BME280;66928;52.086;5.240;2023-04-07T14:09:38;101758.0;;;10.94;77.12
50652;BME280;66928;52.086;5.240;2023-04-07T14:11:15;101758.0;;;11.15;77.0
50652;BME280;66928;52.086;5.240;2023-04-07T14:12:52;101760.0;;;11.18;76.31
50652;BME280;66928;52.086;5.240;2023-04-07T14:16:04;101757.0;;;11.32;76.2
50652;BME280;66928;52.086;5.240;2023-04-07T14:17:40;101763.0;;;11.22;76.5
50652;BME280;66928;52.086;5.240;2023-04-07T14:19:19;101765.0;;;10.83;77.61
50652;BME280;66928;52.086;5.240;2023-04-07T14:22:32;101764.0;;;10.89;78.05
50652;BME280;66928;52.086;5.240;2023-04-07T14:24:08;101760.0;;;11.01;77.86
50652;BME280;66928;52.086;5.240;2023-04-07T14:25:44;101762.0;;;10.89;78.56
50652;BME280;66928;52.086;5.240;2023-04-07T14:28:56;101760.0;;;11.06;77.91
50652;BME280;66928;52.086;5.240;2023-04-07T14:30:34;101763.0;;;11.1;77.81
50652;BME280;66928;52.086;5.240;2023-04-07T14:32:10;101763.0;;;11.14;77.66
50652;BME280;66928;52.086;5.240;2023-04-07T14:37:01;101768.0;;;11.23;77.83
50652;BME280;66928;52.086;5.240;2023-04-07T14:38:37;101764.0;;;11.59;76.42
50652;BME280;66928;52.086;5.240;2023-04-07T14:40:13;101768.0;;;11.69;76.02
50652;BME280;66928;52.086;5.240;2023-04-07T14:43:28;101767.0;;;11.52;76.73
50652;BME280;66928;52.086;5.240;2023-04-07T14:45:05;101764.0;;;11.51;76.5
50652;BME280;66928;52.086;5.240;2023-04-07T14:46:41;101776.0;;;10.97;77.94
50652;BME280;66928;52.086;5.240;2023-04-07T14:49:53;101775.0;;;11.05;77.8
50652;BME280;66928;52.086;5.240;2023-04-07T14:51:29;101773.0;;;10.94;77.92
50652;BME280;66928;52.086;5.240;2023-04-07T14:53:05;101774.0;;;10.98;78.02
50652;BME280;66928;52.086;5.240;2023-04-07T14:56:18;101778.0;;;11.02;78.02
50652;BME280;66928;52.086;5.240;2023-04-07T14:57:54;101776.0;;;11.19;77.8
50652;BME280;66928;52.086;5.240;2023-04-07T14:59:30;101777.0;;;11.12;78.28
50652;BME280;66928;52.086;5.240;2023-04-07T15:01:06;101775.0;;;11.3;77.62
50652;BME280;66928;52.086;5.240;2023-04-07T15:04:18;101781.0;;;11.08;77.78
50652;BME280;66928;52.086;5.240;2023-04-07T15:05:55;101781.0;;;10.78;79.5
50652;BME280;66928;52.086;5.240;2023-04-07T15:07:31;101777.0;;;10.87;79.86
50652;BME280;66928;52.086;5.240;2023-04-07T15:10:44;101776.0;;;11.33;78.19
50652;BME280;66928;52.086;5.240;2023-04-07T15:12:20;101781.0;;;11.13;78.86
50652;BME280;66928;52.086;5.240;2023-04-07T15:13:56;101783.0;;;11.21;79.14
50652;BME280;66928;52.086;5.240;2023-04-07T15:17:09;101781.0;;;11.07;80.2
50652;BME280;66928;52.086;5.240;2023-04-07T15:18:45;101785.0;;;11.19;79.62
50652;BME280;66928;52.086;5.240;2023-04-07T15:20:21;101797.0;;;10.97;80.89
50652;BME280;66928;52.086;5.240;2023-04-07T15:21:57;101792.0;;;11.08;80.73
50652;BME280;66928;52.086;5.240;2023-04-07T15:25:10;101797.0;;;11.13;80.8
50652;BME280;66928;52.086;5.240;2023-04-07T15:26:47;101791.0;;;10.6;83.78
50652;BME280;66928;52.086;5.240;2023-04-07T15:28:23;101795.0;;;10.87;83.44
50652;BME280;66928;52.086;5.240;2023-04-07T15:31:35;101800.0;;;10.87;83.33
50652;BME280;66928;52.086;5.240;2023-04-07T15:33:11;101801.0;;;10.59;84.34
50652;BME280;66928;52.086;5.240;2023-04-07T15:34:48;101803.0;;;10.62;85.35
50652;BME280;66928;52.086;5.240;2023-04-07T15:38:00;101803.0;;;10.93;84.68
50652;BME280;66928;52.086;5.240;2023-04-07T15:39:36;101808.0;;;10.24;86.54
50652;BME280;66928;52.086;5.240;2023-04-07T15:41:13;101807.0;;;10.31;87.47
50652;BME280;66928;52.086;5.240;2023-04-07T15:42:50;101805.0;;;10.13;88.34
50652;BME280;66928;52.086;5.240;2023-04-07T15:46:02;101805.0;;;10.29;87.47
50652;BME280;66928;52.086;5.240;2023-04-07T15:47:39;101809.0;;;10.58;86.25
50652;BME280;66928;52.086;5.240;2023-04-07T15:49:15;101805.0;;;10.82;85.4
50652;BME280;66928;52.086;5.240;2023-04-07T15:52:29;101810.0;;;10.75;85.8
50652;BME280;66928;52.086;5.240;2023-04-07T15:54:06;101812.0;;;10.33;87.08
50652;BME280;66928;52.086;5.240;2023-04-07T15:55:42;101818.0;;;10.14;87.54
50652;BME280;66928;52.086;5.240;2023-04-07T15:58:54;101812.0;;;10.38;87.01
50652;BME280;66928;52.086;5.240;2023-04-07T16:00:32;101818.0;;;10.4;86.16
50652;BME280;66928;52.086;5.240;2023-04-07T16:02:09;101815.0;;;10.38;86.82
50652;BME280;66928;52.086;5.240;2023-04-07T16:03:45;101816.0;;;10.14;88.09
50652;BME280;66928;52.086;5.240;2023-04-07T16:06:59;101815.0;;;10.35;87.71
50652;BME280;66928;52.086;5.240;2023-04-07T16:08:35;101824.0;;;10.6;86.51
50652;BME280;66928;52.086;5.240;2023-04-07T16:10:11;101821.0;;;10.73;85.49
50652;BME280;66928;52.086;5.240;2023-04-07T16:13:25;101826.0;;;10.53;85.35
50652;BME280;66928;52.086;5.240;2023-04-07T16:15:02;101821.0;;;10.28;86.35
50652;BME280;66928;52.086;5.240;2023-04-07T16:16:37;101823.0;;;10.24;86.61
50652;BME280;66928;52.086;5.240;2023-04-07T16:19:50;101824.0;;;10.41;86.04
50652;BME280;66928;52.086;5.240;2023-04-07T16:21:26;101826.0;;;10.82;84.52
50652;BME280;66928;52.086;5.240;2023-04-07T16:23:02;101825.0;;;10.58;84.98
50652;BME280;66928;52.086;5.240;2023-04-07T16:27:51;101827.0;;;10.5;84.8
50652;BME280;66928;52.086;5.240;2023-04-07T16:29:27;101828.0;;;10.69;84.67
50652;BME280;66928;52.086;5.240;2023-04-07T16:31:04;101834.0;;;10.75;83.54
50652;BME280;66928;52.086;5.240;2023-04-07T16:34:17;101830.0;;;10.42;84.54
50652;BME280;66928;52.086;5.240;2023-04-07T16:35:52;101836.0;;;10.79;83.63
50652;BME280;66928;52.086;5.240;2023-04-07T16:37:28;101835.0;;;10.43;85.09
50652;BME280;66928;52.086;5.240;2023-04-07T16:40:44;101834.0;;;10.45;84.49
50652;BME280;66928;52.086;5.240;2023-04-07T16:44:00;101845.0;;;10.09;87.09
50652;BME280;66928;52.086;5.240;2023-04-07T16:45:36;101843.0;;;10.28;86.08
50652;BME280;66928;52.086;5.240;2023-04-07T16:48:48;101846.0;;;10.18;87.55
50652;BME280;66928;52.086;5.240;2023-04-07T16:50:25;101848.0;;;10.32;86.89
50652;BME280;66928;52.086;5.240;2023-04-07T16:52:01;101848.0;;;10.43;86.96
50652;BME280;66928;52.086;5.240;2023-04-07T16:55:13;101851.0;;;10.29;87.72
50652;BME280;66928;52.086;5.240;2023-04-07T16:56:49;101857.0;;;10.31;88.1
50652;BME280;66928;52.086;5.240;2023-04-07T16:58:25;101855.0;;;10.23;88.92
50652;BME280;66928;52.086;5.240;2023-04-07T17:01:39;101853.0;;;10.31;88.6